Latest Coastal Weather Observations for Low Isles

IDQ60701

Issued at 9:21 am EST Tuesday 3 May 2016 (issued every 10 minutes, with the page automatically refreshed every 10 minutes)

About coastal observations | Map of coastal stations | Coastal observations for QLD | Marine services | Other Formats
Station Details ID: 031037 Name: LOW ISLES LIGHTHOUSE Lat: -16.38 Lon: 145.56 Height: 2.9 m
Data from the previous 72 hours. | See also: Recent months at Low Isles
Date/Time
EST
Temp

°C
Wind Pressure Rain
since 9am
mm
Weather Cloud Vis
km
Sea
Height
m
Swell
Dir
 
Speed
knots
Gust
knots
hPa Trend Height
m
Period
s
Dir
03/09:00am 26.1 SSW 7 9 1014.4 - 0.2 Haze Mostly cloudy 10 - - - -
03/08:30am 26.1 SW 9 10 1014.5 - 0.2 - - - - - - -
03/08:00am 26.0 SW 9 10 1014.3 - 0.2 - - - - - - -
03/07:30am 25.9 SW 8 9 1014.0 - 0.2 - - - - - - -
03/07:00am 25.9 SSW 8 9 1013.8 - 0.2 - - - - - - -
03/06:30am 25.9 SSW 7 9 1013.6 - 0.2 - - - - - - -
03/06:00am 25.8 SSW 7 8 1013.0 - 0.2 - - - - - - -
03/05:30am 25.9 SSW 7 8 1012.9 - 0.2 - - - - - - -
03/05:00am 26.0 S 9 10 1012.8 - 0.2 - - - - - - -
03/04:30am 26.2 S 10 11 1012.6 - 0.2 - - - - - - -
03/04:00am 26.1 S 10 11 1012.5 - 0.2 - - - - - - -
03/03:30am 26.1 S 9 10 1012.6 - 0.2 - - - - - - -
03/03:00am 26.2 S 9 11 1012.7 - 0.2 - - - - - - -
03/02:30am 26.2 S 9 11 1012.9 - 0.2 - - - - - - -
03/02:00am 26.2 SSE 8 10 1013.2 - 0.2 - - - - - - -
03/01:30am 26.1 S 9 10 1013.5 - 0.2 - - - - - - -
03/01:00am 26.3 S 9 11 1013.9 - 0.2 - - - - - - -
03/12:30am 26.2 SSE 9 10 1014.1 - 0.2 - - - - - - -
03/12:00am 26.4 SSE 8 9 1014.4 - 0.2 - - - - - - -
 
Date/Time
EST
Temp

°C
Wind Pressure Rain
since 9am
mm
Weather Cloud Vis
km
Sea
Height
m
Swell
Dir
 
Speed
knots
Gust
knots
hPa Trend Height
m
Period
s
Dir
02/11:30pm 26.6 SE 10 11 1014.8 - 0.2 - - - - - - -
02/11:00pm 26.7 SE 9 10 1014.8 - 0.2 - - - - - - -
02/10:30pm 26.7 SE 10 12 1014.9 - 0.2 - - - - - - -
02/10:00pm 26.7 SE 10 12 1014.9 - 0.2 - - - - - - -
02/09:30pm 26.8 SE 10 13 1014.9 - 0.2 - - - - - - -
02/09:00pm 26.9 ESE 11 14 1014.8 - 0.2 - - - - - - -
02/08:30pm 26.7 SE 10 13 1014.9 - 0.2 - - - - - - -
02/08:00pm 26.6 SE 10 13 1014.6 - 0.2 - - - - - - -
02/07:30pm 26.9 SE 11 13 1014.3 - 0.2 - - - - - - -
02/07:00pm 26.9 SE 11 12 1013.9 - 0.2 - - - - - - -
02/06:30pm 26.9 ESE 11 13 1013.4 - 0.2 - - - - - - -
02/06:00pm 26.9 ESE 11 13 1012.9 - 0.2 - - - - - - -
02/05:30pm 27.2 ESE 10 13 1012.6 - 0.2 - - - - - - -
02/05:00pm 27.6 ESE 9 12 1012.3 - 0.2 - - - - - - -
02/04:30pm 28.2 ESE 10 12 1012.0 - 0.2 - - - - - - -
02/04:00pm 29.0 ESE 9 11 1011.8 - 0.2 - - - - - - -
02/03:30pm 29.4 ESE 10 13 1011.7 - 0.2 - - - - - - -
02/03:00pm 29.4 SE 9 12 1011.7 - 0.2 - - - - - - -
02/02:30pm 29.4 SE 11 13 1011.9 - 0.2 - - - - - - -
02/02:00pm 29.7 SE 11 13 1012.1 - 0.2 - - - - - - -
02/01:30pm 29.8 SE 11 13 1012.4 - 0.2 - - - - - - -
02/01:00pm 29.7 SSE 11 13 1012.8 - 0.2 - - - - - - -
02/12:30pm 29.4 SSE 10 12 1013.3 - 0.2 - - - - - - -
02/12:00pm 29.2 SSE 11 13 1013.7 - 0.2 - - - - - - -
02/11:30am 29.0 SSE 11 12 1014.2 - 0.2 - - - - - - -
02/11:00am 28.8 SSE 11 13 1014.6 - 0.2 - - - - - - -
02/10:30am 28.3 SSE 11 12 1015.1 - 0.0 - - - - - - -
02/10:00am 27.6 SSE 11 12 1015.2 - 0.0 - - - - - - -
02/09:30am 27.2 SSE 10 11 1015.2 - 0.0 - - - - - - -
02/09:00am 26.7 SSE 11 13 1015.1 - 9.4 Haze Cloudy 6 - - - -
02/08:30am 26.5 SSE 11 13 1014.9 - 9.4 - - - - - - -
02/08:00am 26.4 SSE 10 12 1014.7 - 9.4 - - - - - - -
02/07:30am 26.5 SSE 9 11 1014.5 - 9.4 - - - - - - -
02/07:00am 26.2 SE 8 9 1014.2 - 9.4 - - - - - - -
02/06:30am 26.1 SSE 9 11 1013.9 - 9.4 - - - - - - -
02/06:00am 26.4 S 12 14 1013.6 - 9.4 - - - - - - -
02/05:30am 26.2 S 10 11 1013.5 - 9.4 - - - - - - -
02/05:00am 26.1 SSE 9 10 1013.3 - 9.4 - - - - - - -
02/04:30am 26.2 SSE 10 13 1013.2 - 9.4 - - - - - - -
02/04:00am 26.2 S 10 11 1013.0 - 9.4 - - - - - - -
02/03:30am 26.1 S 8 9 1013.1 - 9.4 - - - - - - -
02/03:00am 26.2 SSE 10 11 1013.2 - 9.4 - - - - - - -
02/02:30am 25.9 S 12 13 1013.4 - 9.4 - - - - - - -
02/02:00am 25.9 SSE 11 13 1013.6 - 9.4 - - - - - - -
02/01:30am 26.1 SSE 12 16 1013.8 - 9.4 - - - - - - -
02/01:00am 26.1 SSE 13 14 1014.1 - 9.2 - - - - - - -
02/12:30am 25.8 SSE 13 15 1014.4 - 9.2 - - - - - - -
02/12:00am 25.8 SSE 13 15 1014.6 - 9.2 - - - - - - -
 
Date/Time
EST
Temp

°C
Wind Pressure Rain
since 9am
mm
Weather Cloud Vis
km
Sea
Height
m
Swell
Dir
 
Speed
knots
Gust
knots
hPa Trend Height
m
Period
s
Dir
01/11:30pm 25.8 SSE 14 16 1014.9 - 9.2 - - - - - - -
01/11:00pm 25.9 SSE 13 16 1015.0 - 9.2 - - - - - - -
01/10:30pm 26.1 SSE 16 22 1015.1 - 9.0 - - - - - - -
01/10:00pm 26.8 SSE 15 17 1015.0 - 5.6 - - - - - - -
01/09:30pm 26.8 SSE 16 18 1015.0 - 5.6 - - - - - - -
01/09:00pm 26.8 SSE 15 18 1014.8 - 5.6 - - - - - - -
01/08:30pm 26.8 SE 15 17 1014.8 - 5.6 - - - - - - -
01/08:00pm 27.1 SE 13 15 1014.7 - 5.6 - - - - - - -
01/07:30pm 26.8 SE 13 15 1014.3 - 5.6 - - - - - - -
01/07:00pm 26.7 SE 12 15 1013.9 - 5.6 - - - - - - -
01/06:30pm 26.8 SE 12 13 1013.6 - 5.6 - - - - - - -
01/06:00pm 27.0 SE 12 14 1013.3 - 5.6 - - - - - - -
01/05:30pm 27.0 SE 13 14 1013.2 - 5.6 - - - - - - -
01/05:00pm 27.3 SE 11 13 1013.1 - 5.6 - - - - - - -
01/04:30pm 27.8 SE 11 13 1013.0 - 5.6 - - - - - - -
01/04:00pm 28.1 SE 12 14 1012.9 - 5.6 - - - - - - -
01/03:30pm 28.4 SE 13 15 1012.9 - 5.6 - - - - - - -
01/03:00pm 28.4 SE 14 16 1012.8 - 5.6 - - - - - - -
01/02:30pm 28.4 SE 13 15 1013.1 - 5.6 - - - - - - -
01/02:00pm 28.3 SSE 15 16 1013.3 - 5.6 - - - - - - -
01/01:30pm 28.6 SSE 13 16 1013.6 - 5.6 - - - - - - -
01/01:00pm 28.1 SSE 14 16 1014.1 - 5.6 - - - - - - -
01/12:30pm 28.2 SSE 12 14 1014.5 - 5.4 - - - - - - -
01/12:00pm 27.4 SSE 13 15 1014.8 - 5.4 - - - - - - -
01/11:30am 27.1 SSE 16 18 1015.1 - 5.4 - - - - - - -
01/11:00am 26.3 SSE 19 22 1015.5 - 5.4 - - - - - - -
01/10:30am 25.7 SSE 17 20 1015.9 - 5.4 - - - - - - -
01/10:00am 25.5 S 14 16 1016.0 - 4.4 - - - - - - -
01/09:30am 25.2 S 12 16 1016.2 - 3.8 - - - - - - -
01/09:00am 25.7 SSE 14 17 1015.9 - 5.0 Distant precip. Cloudy 6 - - - -
01/08:30am 25.2 SSE 16 18 1015.9 - 5.0 - - - - - - -
01/08:00am 24.8 SE 18 22 1015.7 - 5.0 - - - - - - -
01/07:30am 25.1 ESE 18 22 1015.5 - 4.8 - - - - - - -
01/07:00am 25.5 ESE 15 19 1015.2 - 4.2 - - - - - - -
01/06:30am 26.7 SSE 17 20 1014.6 - 0.8 - - - - - - -
01/06:00am 26.5 SSE 16 17 1014.2 - 0.8 - - - - - - -
01/05:30am 26.4 SSE 14 16 1014.1 - 0.8 - - - - - - -
01/05:00am 26.4 SSE 14 16 1013.9 - 0.8 - - - - - - -
01/04:30am 26.3 SSE 15 17 1014.0 - 0.8 - - - - - - -
01/04:00am 26.3 SSE 14 16 1013.8 - 0.8 - - - - - - -
01/03:30am 26.3 SSE 15 17 1013.8 - 0.8 - - - - - - -
01/03:00am 26.3 SSE 15 17 1013.7 - 0.8 - - - - - - -
01/02:30am 26.3 SSE 17 19 1013.9 - 0.8 - - - - - - -
01/02:00am 26.3 SSE 17 19 1014.1 - 0.8 - - - - - - -
01/01:30am 26.4 SSE 17 21 1014.2 - 0.8 - - - - - - -
01/01:00am 26.2 SSE 17 19 1014.4 - 0.6 - - - - - - -
01/12:30am 26.0 SSE 15 18 1014.4 - 0.6 - - - - - - -
01/12:00am 26.2 SSE 17 20 1014.5 - 0.4 - - - - - - -
 
Date/Time
EST
Temp

°C
Wind Pressure Rain
since 9am
mm
Weather Cloud Vis
km
Sea
Height
m
Swell
Dir
 
Speed
knots
Gust
knots
hPa Trend Height
m
Period
s
Dir
30/11:30pm 26.4 SE 16 18 1014.9 - 0.2 - - - - - - -
30/11:00pm 26.5 SE 18 20 1015.0 - 0.2 - - - - - - -
30/10:30pm 26.6 SSE 18 21 1015.1 - 0.2 - - - - - - -
30/10:00pm 26.5 SSE 18 21 1015.1 - 0.2 - - - - - - -
30/09:30pm 26.6 SSE 18 21 1015.0 - 0.2 - - - - - - -
30/09:00pm 26.8 SSE 18 21 1014.8 - 0.2 - - - - - - -
30/08:30pm 26.8 SSE 21 24 1014.7 - 0.2 - - - - - - -
30/08:00pm 26.5 SSE 20 22 1014.4 - 0.2 - - - - - - -
30/07:30pm 26.8 SE 19 22 1014.0 - 0.2 - - - - - - -
30/07:00pm 27.4 SSE 18 21 1013.7 - 0.2 - - - - - - -
30/06:30pm 27.2 SE 19 23 1013.5 - 0.2 - - - - - - -
30/06:00pm 27.1 SE 17 20 1013.0 - 0.2 - - - - - - -
30/05:30pm 27.0 SE 18 21 1013.1 - 0.2 - - - - - - -
30/05:00pm 27.2 SE 17 20 1013.0 - 0.2 - - - - - - -
30/04:30pm 27.5 SE 16 19 1012.9 - 0.2 - - - - - - -
30/04:00pm 27.4 SSE 17 19 1012.9 - 0.2 - - - - - - -
30/03:30pm 27.7 SE 18 21 1012.8 - 0.2 - - - - - - -
30/03:00pm 27.9 SE 16 20 1012.7 - 0.2 - - - - - - -
30/02:30pm 28.3 SE 17 20 1013.0 - 0.2 - - - - - - -
30/02:00pm 28.4 SE 17 19 1013.4 - 0.2 - - - - - - -
30/01:30pm 28.8 SE 16 20 1013.7 - 0.2 - - - - - - -
30/01:00pm 28.2 SE 17 21 1014.0 - 0.2 - - - - - - -
30/12:30pm 28.5 SE 16 21 1014.4 - 0.2 - - - - - - -
30/12:00pm 28.5 SE 17 19 1014.7 - 0.2 - - - - - - -
30/11:30am 28.4 SE 16 19 1015.3 - 0.2 - - - - - - -
30/11:00am 28.7 SSE 15 16 1015.5 - 0.2 - - - - - - -
30/10:30am 28.0 SSE 15 16 1015.8 - 0.0 - - - - - - -
30/10:00am 27.3 SSE 16 18 1016.1 - 0.0 - - - - - - -
30/09:30am 26.9 SSE 14 16 1016.2 - 0.0 - - - - - - -

Other Formats:

Comma delimited format used in spreadsheet applications
http://www.bom.gov.au/fwo/IDQ60701/IDQ60701.94285.axf

JavaScript Object Notation format (JSON) in row-major order
http://www.bom.gov.au/fwo/IDQ60701/IDQ60701.94285.json